sensor_id;sensor_type;location;lat;lon;timestamp;P1;durP1;ratioP1;P2;durP2;ratioP2
22603;SDS011;11469;49.024;8.246;2022-08-01T00:01:13;3.50;;;2.08;;
22603;SDS011;11469;49.024;8.246;2022-08-01T00:03:38;4.53;;;2.67;;
22603;SDS011;11469;49.024;8.246;2022-08-01T00:06:04;2.65;;;1.80;;
22603;SDS011;11469;49.024;8.246;2022-08-01T00:08:29;3.47;;;2.05;;
22603;SDS011;11469;49.024;8.246;2022-08-01T00:10:55;4.22;;;2.03;;
22603;SDS011;11469;49.024;8.246;2022-08-01T00:13:20;4.20;;;2.17;;
22603;SDS011;11469;49.024;8.246;2022-08-01T00:15:45;4.13;;;2.28;;
22603;SDS011;11469;49.024;8.246;2022-08-01T00:18:11;2.95;;;2.05;;
22603;SDS011;11469;49.024;8.246;2022-08-01T00:20:36;3.10;;;2.10;;
22603;SDS011;11469;49.024;8.246;2022-08-01T00:23:02;5.18;;;2.20;;
22603;SDS011;11469;49.024;8.246;2022-08-01T00:25:28;10.68;;;2.30;;
22603;SDS011;11469;49.024;8.246;2022-08-01T00:27:53;3.58;;;2.33;;
22603;SDS011;11469;49.024;8.246;2022-08-01T00:30:19;9.60;;;2.78;;
22603;SDS011;11469;49.024;8.246;2022-08-01T00:32:44;3.28;;;1.90;;
22603;SDS011;11469;49.024;8.246;2022-08-01T00:35:10;3.03;;;2.00;;
22603;SDS011;11469;49.024;8.246;2022-08-01T00:37:35;5.90;;;2.25;;
22603;SDS011;11469;49.024;8.246;2022-08-01T00:40:01;2.50;;;1.90;;
22603;SDS011;11469;49.024;8.246;2022-08-01T00:42:26;4.30;;;2.40;;
22603;SDS011;11469;49.024;8.246;2022-08-01T00:44:52;3.70;;;2.03;;
22603;SDS011;11469;49.024;8.246;2022-08-01T00:47:17;5.00;;;2.45;;
22603;SDS011;11469;49.024;8.246;2022-08-01T00:49:43;5.82;;;2.38;;
22603;SDS011;11469;49.024;8.246;2022-08-01T00:52:08;4.65;;;1.98;;
22603;SDS011;11469;49.024;8.246;2022-08-01T00:54:34;5.30;;;2.00;;
22603;SDS011;11469;49.024;8.246;2022-08-01T00:57:00;3.55;;;2.10;;
22603;SDS011;11469;49.024;8.246;2022-08-01T00:59:27;2.83;;;2.20;;
22603;SDS011;11469;49.024;8.246;2022-08-01T01:01:53;4.22;;;2.08;;
22603;SDS011;11469;49.024;8.246;2022-08-01T01:04:18;3.38;;;2.03;;
22603;SDS011;11469;49.024;8.246;2022-08-01T01:06:46;5.43;;;2.15;;
22603;SDS011;11469;49.024;8.246;2022-08-01T01:09:26;5.00;;;2.33;;
22603;SDS011;11469;49.024;8.246;2022-08-01T01:17:11;6.00;;;2.35;;
22603;SDS011;11469;49.024;8.246;2022-08-01T01:19:41;3.75;;;2.22;;
22603;SDS011;11469;49.024;8.246;2022-08-01T01:27:57;4.07;;;2.40;;
22603;SDS011;11469;49.024;8.246;2022-08-01T01:30:34;3.22;;;2.10;;
22603;SDS011;11469;49.024;8.246;2022-08-01T01:33:03;3.65;;;2.33;;
22603;SDS011;11469;49.024;8.246;2022-08-01T01:35:35;2.80;;;2.08;;
22603;SDS011;11469;49.024;8.246;2022-08-01T01:38:07;7.18;;;2.38;;
22603;SDS011;11469;49.024;8.246;2022-08-01T01:40:37;4.70;;;2.53;;
22603;SDS011;11469;49.024;8.246;2022-08-01T01:43:04;9.68;;;2.40;;
22603;SDS011;11469;49.024;8.246;2022-08-01T01:45:34;6.68;;;2.30;;
22603;SDS011;11469;49.024;8.246;2022-08-01T01:48:01;2.80;;;2.20;;
22603;SDS011;11469;49.024;8.246;2022-08-01T01:50:28;4.30;;;2.20;;
22603;SDS011;11469;49.024;8.246;2022-08-01T01:52:54;3.83;;;2.03;;
22603;SDS011;11469;49.024;8.246;2022-08-01T01:55:21;5.43;;;2.80;;
22603;SDS011;11469;49.024;8.246;2022-08-01T01:57:48;2.95;;;2.33;;
22603;SDS011;11469;49.024;8.246;2022-08-01T02:00:16;5.13;;;2.58;;
22603;SDS011;11469;49.024;8.246;2022-08-01T02:02:42;9.27;;;2.40;;
22603;SDS011;11469;49.024;8.246;2022-08-01T02:05:10;3.45;;;2.10;;
22603;SDS011;11469;49.024;8.246;2022-08-01T02:07:36;4.97;;;2.90;;
22603;SDS011;11469;49.024;8.246;2022-08-01T02:10:03;3.58;;;2.42;;
22603;SDS011;11469;49.024;8.246;2022-08-01T02:12:31;4.50;;;2.75;;
22603;SDS011;11469;49.024;8.246;2022-08-01T02:15:00;5.63;;;2.60;;
22603;SDS011;11469;49.024;8.246;2022-08-01T02:17:28;4.15;;;2.45;;
22603;SDS011;11469;49.024;8.246;2022-08-01T02:19:55;3.47;;;2.55;;
22603;SDS011;11469;49.024;8.246;2022-08-01T02:22:29;4.35;;;2.78;;
22603;SDS011;11469;49.024;8.246;2022-08-01T02:25:02;3.78;;;2.30;;
22603;SDS011;11469;49.024;8.246;2022-08-01T02:27:37;6.53;;;2.63;;
22603;SDS011;11469;49.024;8.246;2022-08-01T02:30:08;6.68;;;2.42;;
22603;SDS011;11469;49.024;8.246;2022-08-01T02:32:41;7.22;;;2.42;;
22603;SDS011;11469;49.024;8.246;2022-08-01T02:35:11;6.00;;;2.70;;
22603;SDS011;11469;49.024;8.246;2022-08-01T02:37:43;3.60;;;2.47;;
22603;SDS011;11469;49.024;8.246;2022-08-01T02:40:10;3.03;;;2.28;;
22603;SDS011;11469;49.024;8.246;2022-08-01T02:42:37;8.82;;;2.70;;
22603;SDS011;11469;49.024;8.246;2022-08-01T02:45:06;5.05;;;2.30;;
22603;SDS011;11469;49.024;8.246;2022-08-01T02:47:34;3.72;;;2.67;;
22603;SDS011;11469;49.024;8.246;2022-08-01T02:50:02;6.38;;;2.67;;
22603;SDS011;11469;49.024;8.246;2022-08-01T02:52:29;2.75;;;2.30;;
22603;SDS011;11469;49.024;8.246;2022-08-01T02:54:56;4.68;;;2.50;;
22603;SDS011;11469;49.024;8.246;2022-08-01T02:57:23;4.28;;;2.78;;
22603;SDS011;11469;49.024;8.246;2022-08-01T02:59:50;3.58;;;2.50;;
22603;SDS011;11469;49.024;8.246;2022-08-01T03:02:17;3.55;;;2.58;;
22603;SDS011;11469;49.024;8.246;2022-08-01T03:04:45;4.55;;;2.75;;
22603;SDS011;11469;49.024;8.246;2022-08-01T03:07:12;3.22;;;2.30;;
22603;SDS011;11469;49.024;8.246;2022-08-01T03:09:40;4.63;;;2.67;;
22603;SDS011;11469;49.024;8.246;2022-08-01T03:12:13;5.15;;;2.35;;
22603;SDS011;11469;49.024;8.246;2022-08-01T03:14:41;4.00;;;2.42;;
22603;SDS011;11469;49.024;8.246;2022-08-01T03:17:08;6.85;;;3.05;;
22603;SDS011;11469;49.024;8.246;2022-08-01T03:19:35;3.17;;;2.55;;
22603;SDS011;11469;49.024;8.246;2022-08-01T03:22:02;5.38;;;2.90;;
22603;SDS011;11469;49.024;8.246;2022-08-01T03:24:31;8.80;;;2.70;;
22603;SDS011;11469;49.024;8.246;2022-08-01T03:26:59;6.22;;;2.50;;
22603;SDS011;11469;49.024;8.246;2022-08-01T03:29:27;3.83;;;2.70;;
22603;SDS011;11469;49.024;8.246;2022-08-01T03:31:55;3.03;;;2.50;;
22603;SDS011;11469;49.024;8.246;2022-08-01T03:34:21;3.05;;;2.53;;
22603;SDS011;11469;49.024;8.246;2022-08-01T03:36:48;4.88;;;2.70;;
22603;SDS011;11469;49.024;8.246;2022-08-01T03:39:18;4.55;;;2.80;;
22603;SDS011;11469;49.024;8.246;2022-08-01T03:41:50;3.75;;;2.67;;
22603;SDS011;11469;49.024;8.246;2022-08-01T03:44:20;3.33;;;2.40;;
22603;SDS011;11469;49.024;8.246;2022-08-01T03:47:08;4.43;;;2.80;;
22603;SDS011;11469;49.024;8.246;2022-08-01T03:49:35;4.13;;;2.70;;
22603;SDS011;11469;49.024;8.246;2022-08-01T03:52:06;4.50;;;2.90;;
22603;SDS011;11469;49.024;8.246;2022-08-01T03:54:34;7.95;;;2.88;;
22603;SDS011;11469;49.024;8.246;2022-08-01T03:57:02;3.85;;;2.40;;
22603;SDS011;11469;49.024;8.246;2022-08-01T03:59:29;3.22;;;2.42;;
22603;SDS011;11469;49.024;8.246;2022-08-01T04:01:55;6.35;;;2.80;;
22603;SDS011;11469;49.024;8.246;2022-08-01T04:04:22;5.03;;;2.70;;
22603;SDS011;11469;49.024;8.246;2022-08-01T04:06:48;3.42;;;2.55;;
22603;SDS011;11469;49.024;8.246;2022-08-01T04:09:18;3.05;;;2.63;;
22603;SDS011;11469;49.024;8.246;2022-08-01T04:11:44;3.95;;;3.03;;
22603;SDS011;11469;49.024;8.246;2022-08-01T04:14:09;5.90;;;2.80;;
22603;SDS011;11469;49.024;8.246;2022-08-01T04:16:35;4.90;;;2.80;;
22603;SDS011;11469;49.024;8.246;2022-08-01T04:19:00;3.60;;;2.47;;
22603;SDS011;11469;49.024;8.246;2022-08-01T04:21:26;7.03;;;2.58;;
22603;SDS011;11469;49.024;8.246;2022-08-01T04:23:57;3.03;;;2.42;;
22603;SDS011;11469;49.024;8.246;2022-08-01T04:26:28;6.88;;;2.42;;
22603;SDS011;11469;49.024;8.246;2022-08-01T04:28:55;5.75;;;2.80;;
22603;SDS011;11469;49.024;8.246;2022-08-01T04:31:22;4.57;;;2.58;;
22603;SDS011;11469;49.024;8.246;2022-08-01T04:33:51;4.22;;;2.80;;
22603;SDS011;11469;49.024;8.246;2022-08-01T04:36:20;4.43;;;2.67;;
22603;SDS011;11469;49.024;8.246;2022-08-01T04:38:48;5.65;;;2.47;;
22603;SDS011;11469;49.024;8.246;2022-08-01T04:41:17;5.28;;;3.10;;
22603;SDS011;11469;49.024;8.246;2022-08-01T04:43:44;3.22;;;2.13;;
22603;SDS011;11469;49.024;8.246;2022-08-01T04:46:09;3.15;;;2.53;;
22603;SDS011;11469;49.024;8.246;2022-08-01T04:48:37;4.05;;;2.63;;
22603;SDS011;11469;49.024;8.246;2022-08-01T04:51:04;4.13;;;2.65;;
22603;SDS011;11469;49.024;8.246;2022-08-01T04:53:29;5.15;;;2.35;;
22603;SDS011;11469;49.024;8.246;2022-08-01T04:55:57;7.15;;;2.67;;
22603;SDS011;11469;49.024;8.246;2022-08-01T04:58:23;4.97;;;2.58;;
22603;SDS011;11469;49.024;8.246;2022-08-01T05:00:48;6.57;;;2.70;;
22603;SDS011;11469;49.024;8.246;2022-08-01T05:03:14;3.30;;;2.25;;
22603;SDS011;11469;49.024;8.246;2022-08-01T05:05:40;6.35;;;2.97;;
22603;SDS011;11469;49.024;8.246;2022-08-01T05:08:05;6.30;;;3.10;;
22603;SDS011;11469;49.024;8.246;2022-08-01T05:10:31;4.22;;;2.58;;
22603;SDS011;11469;49.024;8.246;2022-08-01T05:12:56;4.38;;;2.80;;
22603;SDS011;11469;49.024;8.246;2022-08-01T05:15:22;12.13;;;2.67;;
22603;SDS011;11469;49.024;8.246;2022-08-01T05:17:47;6.18;;;2.83;;
22603;SDS011;11469;49.024;8.246;2022-08-01T05:20:13;4.93;;;2.90;;
22603;SDS011;11469;49.024;8.246;2022-08-01T05:22:38;4.15;;;2.75;;
22603;SDS011;11469;49.024;8.246;2022-08-01T05:25:04;4.95;;;2.85;;
22603;SDS011;11469;49.024;8.246;2022-08-01T05:27:30;5.55;;;3.03;;
22603;SDS011;11469;49.024;8.246;2022-08-01T05:29:56;5.88;;;2.72;;
22603;SDS011;11469;49.024;8.246;2022-08-01T05:32:21;8.57;;;3.38;;
22603;SDS011;11469;49.024;8.246;2022-08-01T05:34:47;5.85;;;2.90;;
22603;SDS011;11469;49.024;8.246;2022-08-01T05:37:12;5.13;;;3.10;;
22603;SDS011;11469;49.024;8.246;2022-08-01T05:39:40;6.90;;;2.80;;
22603;SDS011;11469;49.024;8.246;2022-08-01T05:42:05;5.38;;;2.38;;
22603;SDS011;11469;49.024;8.246;2022-08-01T05:44:31;6.15;;;2.60;;
22603;SDS011;11469;49.024;8.246;2022-08-01T05:46:57;8.57;;;2.25;;
22603;SDS011;11469;49.024;8.246;2022-08-01T05:49:22;4.03;;;2.17;;
22603;SDS011;11469;49.024;8.246;2022-08-01T05:51:48;5.35;;;2.72;;
22603;SDS011;11469;49.024;8.246;2022-08-01T05:54:13;4.22;;;2.15;;
22603;SDS011;11469;49.024;8.246;2022-08-01T05:56:39;3.60;;;2.50;;
22603;SDS011;11469;49.024;8.246;2022-08-01T05:59:04;4.45;;;2.20;;
22603;SDS011;11469;49.024;8.246;2022-08-01T06:01:29;6.13;;;2.20;;
22603;SDS011;11469;49.024;8.246;2022-08-01T06:03:55;2.67;;;1.85;;
22603;SDS011;11469;49.024;8.246;2022-08-01T06:06:20;4.80;;;2.08;;
22603;SDS011;11469;49.024;8.246;2022-08-01T06:08:46;4.80;;;1.85;;
22603;SDS011;11469;49.024;8.246;2022-08-01T06:11:12;3.75;;;1.75;;
22603;SDS011;11469;49.024;8.246;2022-08-01T06:13:37;6.43;;;1.95;;
22603;SDS011;11469;49.024;8.246;2022-08-01T06:16:03;2.45;;;1.67;;
22603;SDS011;11469;49.024;8.246;2022-08-01T06:18:28;4.60;;;2.65;;
22603;SDS011;11469;49.024;8.246;2022-08-01T06:20:54;6.47;;;1.95;;
22603;SDS011;11469;49.024;8.246;2022-08-01T06:23:20;4.80;;;1.80;;
22603;SDS011;11469;49.024;8.246;2022-08-01T06:25:46;3.95;;;2.03;;
22603;SDS011;11469;49.024;8.246;2022-08-01T06:28:12;2.88;;;1.70;;
22603;SDS011;11469;49.024;8.246;2022-08-01T06:30:37;5.00;;;1.73;;
22603;SDS011;11469;49.024;8.246;2022-08-01T06:33:03;6.85;;;1.77;;
22603;SDS011;11469;49.024;8.246;2022-08-01T06:35:29;3.40;;;1.63;;
22603;SDS011;11469;49.024;8.246;2022-08-01T06:37:56;3.40;;;1.80;;
22603;SDS011;11469;49.024;8.246;2022-08-01T06:40:22;3.38;;;1.60;;
22603;SDS011;11469;49.024;8.246;2022-08-01T06:42:47;6.90;;;1.70;;
22603;SDS011;11469;49.024;8.246;2022-08-01T06:45:13;7.43;;;2.00;;
22603;SDS011;11469;49.024;8.246;2022-08-01T06:47:40;6.25;;;1.73;;
22603;SDS011;11469;49.024;8.246;2022-08-01T06:50:06;3.92;;;1.85;;
22603;SDS011;11469;49.024;8.246;2022-08-01T06:52:33;5.90;;;1.73;;
22603;SDS011;11469;49.024;8.246;2022-08-01T06:54:59;3.17;;;1.55;;
22603;SDS011;11469;49.024;8.246;2022-08-01T06:57:25;3.70;;;1.63;;
22603;SDS011;11469;49.024;8.246;2022-08-01T06:59:51;4.22;;;1.40;;
22603;SDS011;11469;49.024;8.246;2022-08-01T07:02:16;4.07;;;1.67;;
22603;SDS011;11469;49.024;8.246;2022-08-01T07:04:42;2.97;;;1.42;;
22603;SDS011;11469;49.024;8.246;2022-08-01T07:07:07;4.68;;;1.55;;
22603;SDS011;11469;49.024;8.246;2022-08-01T07:09:33;5.72;;;1.30;;
22603;SDS011;11469;49.024;8.246;2022-08-01T07:11:58;4.55;;;1.30;;
22603;SDS011;11469;49.024;8.246;2022-08-01T07:14:24;3.72;;;1.40;;
22603;SDS011;11469;49.024;8.246;2022-08-01T07:16:50;4.97;;;1.20;;
22603;SDS011;11469;49.024;8.246;2022-08-01T07:19:15;4.60;;;1.30;;
22603;SDS011;11469;49.024;8.246;2022-08-01T07:21:41;2.60;;;1.30;;
22603;SDS011;11469;49.024;8.246;2022-08-01T07:24:08;2.92;;;1.27;;
22603;SDS011;11469;49.024;8.246;2022-08-01T07:26:34;2.38;;;1.05;;
22603;SDS011;11469;49.024;8.246;2022-08-01T07:29:00;1.60;;;1.10;;
22603;SDS011;11469;49.024;8.246;2022-08-01T07:31:26;3.60;;;1.00;;
22603;SDS011;11469;49.024;8.246;2022-08-01T07:33:51;1.75;;;0.90;;
22603;SDS011;11469;49.024;8.246;2022-08-01T07:36:17;1.63;;;0.73;;
22603;SDS011;11469;49.024;8.246;2022-08-01T07:38:43;2.13;;;0.90;;
22603;SDS011;11469;49.024;8.246;2022-08-01T07:41:09;2.55;;;0.98;;
22603;SDS011;11469;49.024;8.246;2022-08-01T07:43:34;4.63;;;0.93;;
22603;SDS011;11469;49.024;8.246;2022-08-01T07:46:01;6.78;;;0.73;;
22603;SDS011;11469;49.024;8.246;2022-08-01T07:48:27;5.65;;;1.15;;
22603;SDS011;11469;49.024;8.246;2022-08-01T07:50:52;1.48;;;0.85;;
22603;SDS011;11469;49.024;8.246;2022-08-01T07:53:18;1.35;;;0.82;;
22603;SDS011;11469;49.024;8.246;2022-08-01T07:55:43;3.80;;;0.80;;
22603;SDS011;11469;49.024;8.246;2022-08-01T07:58:09;3.90;;;0.80;;
22603;SDS011;11469;49.024;8.246;2022-08-01T08:00:34;2.67;;;0.80;;
22603;SDS011;11469;49.024;8.246;2022-08-01T08:02:59;2.60;;;0.90;;
22603;SDS011;11469;49.024;8.246;2022-08-01T08:05:25;2.08;;;1.02;;
22603;SDS011;11469;49.024;8.246;2022-08-01T08:07:52;7.35;;;1.38;;
22603;SDS011;11469;49.024;8.246;2022-08-01T08:10:17;4.43;;;0.77;;
22603;SDS011;11469;49.024;8.246;2022-08-01T08:12:43;1.35;;;0.85;;
22603;SDS011;11469;49.024;8.246;2022-08-01T08:15:08;2.17;;;0.98;;
22603;SDS011;11469;49.024;8.246;2022-08-01T08:17:34;2.38;;;0.70;;
22603;SDS011;11469;49.024;8.246;2022-08-01T08:20:00;2.60;;;0.82;;
22603;SDS011;11469;49.024;8.246;2022-08-01T08:22:27;3.70;;;0.80;;
22603;SDS011;11469;49.024;8.246;2022-08-01T08:24:52;7.50;;;1.08;;
22603;SDS011;11469;49.024;8.246;2022-08-01T08:27:18;1.60;;;0.90;;
22603;SDS011;11469;49.024;8.246;2022-08-01T08:29:43;2.75;;;0.80;;
22603;SDS011;11469;49.024;8.246;2022-08-01T08:32:09;1.02;;;0.70;;
22603;SDS011;11469;49.024;8.246;2022-08-01T08:34:34;2.05;;;0.80;;
22603;SDS011;11469;49.024;8.246;2022-08-01T08:37:00;2.25;;;1.13;;
22603;SDS011;11469;49.024;8.246;2022-08-01T08:39:25;2.53;;;0.90;;
22603;SDS011;11469;49.024;8.246;2022-08-01T08:41:51;2.75;;;1.00;;
22603;SDS011;11469;49.024;8.246;2022-08-01T08:44:17;2.05;;;0.80;;
22603;SDS011;11469;49.024;8.246;2022-08-01T08:46:48;6.35;;;0.90;;
22603;SDS011;11469;49.024;8.246;2022-08-01T08:49:17;2.50;;;0.90;;
22603;SDS011;11469;49.024;8.246;2022-08-01T08:51:44;2.00;;;1.00;;
22603;SDS011;11469;49.024;8.246;2022-08-01T08:54:13;1.52;;;0.80;;
22603;SDS011;11469;49.024;8.246;2022-08-01T08:56:40;2.05;;;0.77;;
22603;SDS011;11469;49.024;8.246;2022-08-01T08:59:07;1.95;;;0.82;;
22603;SDS011;11469;49.024;8.246;2022-08-01T09:01:32;1.77;;;0.80;;
22603;SDS011;11469;49.024;8.246;2022-08-01T09:03:58;2.05;;;0.70;;
22603;SDS011;11469;49.024;8.246;2022-08-01T09:06:24;10.40;;;1.05;;
22603;SDS011;11469;49.024;8.246;2022-08-01T09:08:50;1.70;;;0.77;;
22603;SDS011;11469;49.024;8.246;2022-08-01T09:11:15;7.20;;;1.10;;
22603;SDS011;11469;49.024;8.246;2022-08-01T09:13:41;2.25;;;1.02;;
22603;SDS011;11469;49.024;8.246;2022-08-01T09:16:06;3.95;;;1.35;;
22603;SDS011;11469;49.024;8.246;2022-08-01T09:23:46;2.15;;;0.82;;
22603;SDS011;11469;49.024;8.246;2022-08-01T09:26:18;1.67;;;1.08;;
22603;SDS011;11469;49.024;8.246;2022-08-01T09:28:44;4.80;;;1.10;;
22603;SDS011;11469;49.024;8.246;2022-08-01T09:31:12;5.47;;;1.23;;
22603;SDS011;11469;49.024;8.246;2022-08-01T09:36:27;4.72;;;1.35;;
22603;SDS011;11469;49.024;8.246;2022-08-01T09:39:12;5.90;;;1.15;;
22603;SDS011;11469;49.024;8.246;2022-08-01T09:41:38;2.50;;;1.00;;
22603;SDS011;11469;49.024;8.246;2022-08-01T09:44:04;2.22;;;1.10;;
22603;SDS011;11469;49.024;8.246;2022-08-01T09:46:29;2.90;;;1.00;;
22603;SDS011;11469;49.024;8.246;2022-08-01T09:51:37;6.07;;;1.10;;
22603;SDS011;11469;49.024;8.246;2022-08-01T09:54:04;2.28;;;1.13;;
22603;SDS011;11469;49.024;8.246;2022-08-01T09:56:40;2.03;;;1.15;;
22603;SDS011;11469;49.024;8.246;2022-08-01T09:59:07;1.45;;;0.80;;
22603;SDS011;11469;49.024;8.246;2022-08-01T10:01:44;7.10;;;0.85;;
22603;SDS011;11469;49.024;8.246;2022-08-01T10:04:15;1.73;;;0.77;;
22603;SDS011;11469;49.024;8.246;2022-08-01T10:06:44;1.88;;;1.10;;
22603;SDS011;11469;49.024;8.246;2022-08-01T10:09:26;2.20;;;1.27;;
22603;SDS011;11469;49.024;8.246;2022-08-01T10:11:56;2.30;;;1.17;;
22603;SDS011;11469;49.024;8.246;2022-08-01T10:14:27;1.92;;;0.90;;
22603;SDS011;11469;49.024;8.246;2022-08-01T10:16:53;4.20;;;1.10;;
22603;SDS011;11469;49.024;8.246;2022-08-01T10:19:22;2.70;;;1.17;;
22603;SDS011;11469;49.024;8.246;2022-08-01T10:21:53;1.63;;;1.13;;
22603;SDS011;11469;49.024;8.246;2022-08-01T10:24:20;2.22;;;1.10;;
22603;SDS011;11469;49.024;8.246;2022-08-01T10:26:51;4.53;;;1.20;;
22603;SDS011;11469;49.024;8.246;2022-08-01T10:29:20;1.98;;;1.20;;
22603;SDS011;11469;49.024;8.246;2022-08-01T10:31:47;1.77;;;1.00;;
22603;SDS011;11469;49.024;8.246;2022-08-01T10:34:13;2.58;;;1.45;;
22603;SDS011;11469;49.024;8.246;2022-08-01T10:36:42;4.43;;;1.15;;
22603;SDS011;11469;49.024;8.246;2022-08-01T10:39:12;1.63;;;1.00;;
22603;SDS011;11469;49.024;8.246;2022-08-01T10:41:38;4.65;;;0.98;;
22603;SDS011;11469;49.024;8.246;2022-08-01T10:44:05;6.25;;;1.30;;
22603;SDS011;11469;49.024;8.246;2022-08-01T10:46:32;10.90;;;1.13;;
22603;SDS011;11469;49.024;8.246;2022-08-01T10:49:03;2.13;;;1.15;;
22603;SDS011;11469;49.024;8.246;2022-08-01T10:51:31;4.95;;;1.17;;
22603;SDS011;11469;49.024;8.246;2022-08-01T10:54:02;7.20;;;1.25;;
22603;SDS011;11469;49.024;8.246;2022-08-01T10:56:48;2.22;;;1.30;;
22603;SDS011;11469;49.024;8.246;2022-08-01T10:59:22;5.43;;;1.42;;
22603;SDS011;11469;49.024;8.246;2022-08-01T11:02:02;5.85;;;1.13;;
22603;SDS011;11469;49.024;8.246;2022-08-01T11:04:33;2.53;;;1.40;;
22603;SDS011;11469;49.024;8.246;2022-08-01T11:07:16;2.15;;;1.05;;
22603;SDS011;11469;49.024;8.246;2022-08-01T11:09:46;2.60;;;1.60;;
22603;SDS011;11469;49.024;8.246;2022-08-01T11:12:15;1.75;;;1.10;;
22603;SDS011;11469;49.024;8.246;2022-08-01T11:17:38;3.33;;;1.38;;
22603;SDS011;11469;49.024;8.246;2022-08-01T11:20:12;1.88;;;1.10;;
22603;SDS011;11469;49.024;8.246;2022-08-01T11:30:43;1.98;;;1.27;;
22603;SDS011;11469;49.024;8.246;2022-08-01T11:33:10;6.63;;;1.30;;
22603;SDS011;11469;49.024;8.246;2022-08-01T11:35:36;1.85;;;1.08;;
22603;SDS011;11469;49.024;8.246;2022-08-01T11:38:22;2.08;;;1.13;;
22603;SDS011;11469;49.024;8.246;2022-08-01T11:52:10;2.45;;;1.30;;
22603;SDS011;11469;49.024;8.246;2022-08-01T11:54:47;1.98;;;0.85;;
22603;SDS011;11469;49.024;8.246;2022-08-01T11:57:21;3.47;;;1.20;;
22603;SDS011;11469;49.024;8.246;2022-08-01T12:00:00;5.10;;;1.25;;
22603;SDS011;11469;49.024;8.246;2022-08-01T12:02:34;1.75;;;1.00;;
22603;SDS011;11469;49.024;8.246;2022-08-01T12:05:01;4.97;;;1.30;;
22603;SDS011;11469;49.024;8.246;2022-08-01T12:07:27;3.65;;;1.02;;
22603;SDS011;11469;49.024;8.246;2022-08-01T12:12:25;1.77;;;1.00;;
22603;SDS011;11469;49.024;8.246;2022-08-01T12:15:13;2.53;;;1.08;;
22603;SDS011;11469;49.024;8.246;2022-08-01T12:20:05;1.55;;;0.90;;
22603;SDS011;11469;49.024;8.246;2022-08-01T12:22:33;1.25;;;0.70;;
22603;SDS011;11469;49.024;8.246;2022-08-01T12:25:07;1.65;;;0.80;;
22603;SDS011;11469;49.024;8.246;2022-08-01T12:27:34;3.58;;;0.90;;
22603;SDS011;11469;49.024;8.246;2022-08-01T12:30:00;5.32;;;0.90;;
22603;SDS011;11469;49.024;8.246;2022-08-01T12:32:33;3.08;;;0.90;;
22603;SDS011;11469;49.024;8.246;2022-08-01T12:37:49;2.03;;;1.10;;
22603;SDS011;11469;49.024;8.246;2022-08-01T12:40:23;1.02;;;0.70;;
22603;SDS011;11469;49.024;8.246;2022-08-01T12:42:54;4.43;;;1.20;;
22603;SDS011;11469;49.024;8.246;2022-08-01T12:45:26;4.60;;;0.90;;
22603;SDS011;11469;49.024;8.246;2022-08-01T12:47:54;0.70;;;0.57;;
22603;SDS011;11469;49.024;8.246;2022-08-01T12:50:20;1.95;;;0.65;;
22603;SDS011;11469;49.024;8.246;2022-08-01T12:52:49;1.40;;;0.90;;
22603;SDS011;11469;49.024;8.246;2022-08-01T12:55:16;2.42;;;0.70;;
22603;SDS011;11469;49.024;8.246;2022-08-01T12:57:46;1.58;;;0.80;;
22603;SDS011;11469;49.024;8.246;2022-08-01T13:00:17;1.23;;;0.60;;
22603;SDS011;11469;49.024;8.246;2022-08-01T13:02:45;4.00;;;0.73;;
22603;SDS011;11469;49.024;8.246;2022-08-01T13:05:12;1.35;;;0.70;;
22603;SDS011;11469;49.024;8.246;2022-08-01T13:07:40;0.77;;;0.50;;
22603;SDS011;11469;49.024;8.246;2022-08-01T13:10:06;1.25;;;0.60;;
22603;SDS011;11469;49.024;8.246;2022-08-01T13:12:33;1.73;;;0.70;;
22603;SDS011;11469;49.024;8.246;2022-08-01T13:14:59;2.08;;;0.70;;
22603;SDS011;11469;49.024;8.246;2022-08-01T13:17:34;2.30;;;0.75;;
22603;SDS011;11469;49.024;8.246;2022-08-01T13:20:04;0.73;;;0.52;;
22603;SDS011;11469;49.024;8.246;2022-08-01T13:22:36;0.95;;;0.60;;
22603;SDS011;11469;49.024;8.246;2022-08-01T13:25:12;3.33;;;0.70;;
22603;SDS011;11469;49.024;8.246;2022-08-01T13:27:39;1.33;;;0.60;;
22603;SDS011;11469;49.024;8.246;2022-08-01T13:30:19;4.00;;;0.88;;
22603;SDS011;11469;49.024;8.246;2022-08-01T13:32:57;2.10;;;0.75;;
22603;SDS011;11469;49.024;8.246;2022-08-01T13:35:23;2.15;;;0.98;;
22603;SDS011;11469;49.024;8.246;2022-08-01T13:37:49;2.60;;;0.70;;
22603;SDS011;11469;49.024;8.246;2022-08-01T13:40:22;4.68;;;0.63;;
22603;SDS011;11469;49.024;8.246;2022-08-01T13:42:49;2.78;;;0.80;;
22603;SDS011;11469;49.024;8.246;2022-08-01T13:45:15;2.90;;;0.70;;
22603;SDS011;11469;49.024;8.246;2022-08-01T13:47:41;2.25;;;0.80;;
22603;SDS011;11469;49.024;8.246;2022-08-01T13:50:07;3.40;;;0.68;;
22603;SDS011;11469;49.024;8.246;2022-08-01T13:52:33;3.80;;;0.60;;
22603;SDS011;11469;49.024;8.246;2022-08-01T13:54:59;1.08;;;0.60;;
22603;SDS011;11469;49.024;8.246;2022-08-01T13:57:25;0.95;;;0.50;;
22603;SDS011;11469;49.024;8.246;2022-08-01T13:59:51;0.93;;;0.50;;
22603;SDS011;11469;49.024;8.246;2022-08-01T14:02:17;1.50;;;0.70;;
22603;SDS011;11469;49.024;8.246;2022-08-01T14:04:42;1.10;;;0.70;;
22603;SDS011;11469;49.024;8.246;2022-08-01T14:07:08;3.08;;;0.60;;
22603;SDS011;11469;49.024;8.246;2022-08-01T14:09:34;2.95;;;0.65;;
22603;SDS011;11469;49.024;8.246;2022-08-01T14:12:00;2.92;;;0.75;;
22603;SDS011;11469;49.024;8.246;2022-08-01T14:14:25;5.10;;;0.70;;
22603;SDS011;11469;49.024;8.246;2022-08-01T14:16:51;2.67;;;0.70;;
22603;SDS011;11469;49.024;8.246;2022-08-01T14:19:17;1.65;;;0.70;;
22603;SDS011;11469;49.024;8.246;2022-08-01T14:21:43;2.67;;;0.70;;
22603;SDS011;11469;49.024;8.246;2022-08-01T14:24:08;2.10;;;0.82;;
22603;SDS011;11469;49.024;8.246;2022-08-01T14:26:34;5.00;;;0.63;;
22603;SDS011;11469;49.024;8.246;2022-08-01T14:29:00;3.60;;;0.65;;
22603;SDS011;11469;49.024;8.246;2022-08-01T14:31:26;3.90;;;0.70;;
22603;SDS011;11469;49.024;8.246;2022-08-01T14:33:52;0.90;;;0.47;;
22603;SDS011;11469;49.024;8.246;2022-08-01T14:36:17;1.58;;;0.70;;
22603;SDS011;11469;49.024;8.246;2022-08-01T14:38:44;1.83;;;0.60;;
22603;SDS011;11469;49.024;8.246;2022-08-01T14:41:10;3.72;;;0.60;;
22603;SDS011;11469;49.024;8.246;2022-08-01T14:43:35;4.63;;;0.73;;
22603;SDS011;11469;49.024;8.246;2022-08-01T14:46:01;4.88;;;0.90;;
22603;SDS011;11469;49.024;8.246;2022-08-01T14:48:28;6.85;;;1.10;;
22603;SDS011;11469;49.024;8.246;2022-08-01T14:50:54;0.63;;;0.50;;
22603;SDS011;11469;49.024;8.246;2022-08-01T14:53:19;3.00;;;0.47;;
22603;SDS011;11469;49.024;8.246;2022-08-01T14:55:45;2.65;;;0.90;;
22603;SDS011;11469;49.024;8.246;2022-08-01T14:58:11;4.18;;;0.77;;
22603;SDS011;11469;49.024;8.246;2022-08-01T15:00:37;1.73;;;0.63;;
22603;SDS011;11469;49.024;8.246;2022-08-01T15:03:03;2.10;;;0.80;;
22603;SDS011;11469;49.024;8.246;2022-08-01T15:05:28;1.88;;;0.85;;
22603;SDS011;11469;49.024;8.246;2022-08-01T15:07:55;5.25;;;0.75;;
22603;SDS011;11469;49.024;8.246;2022-08-01T15:10:21;2.20;;;0.70;;
22603;SDS011;11469;49.024;8.246;2022-08-01T15:12:48;2.20;;;0.93;;
22603;SDS011;11469;49.024;8.246;2022-08-01T15:15:13;4.78;;;1.10;;
22603;SDS011;11469;49.024;8.246;2022-08-01T15:17:39;4.25;;;0.80;;
22603;SDS011;11469;49.024;8.246;2022-08-01T15:20:05;3.65;;;0.80;;
22603;SDS011;11469;49.024;8.246;2022-08-01T15:22:31;4.25;;;1.00;;
22603;SDS011;11469;49.024;8.246;2022-08-01T15:24:58;1.88;;;0.80;;
22603;SDS011;11469;49.024;8.246;2022-08-01T15:27:26;3.70;;;0.68;;
22603;SDS011;11469;49.024;8.246;2022-08-01T15:29:53;4.50;;;0.88;;
22603;SDS011;11469;49.024;8.246;2022-08-01T15:32:20;6.47;;;1.08;;
22603;SDS011;11469;49.024;8.246;2022-08-01T15:34:46;1.17;;;0.88;;
22603;SDS011;11469;49.024;8.246;2022-08-01T15:37:12;4.70;;;0.90;;
22603;SDS011;11469;49.024;8.246;2022-08-01T15:39:38;3.10;;;0.80;;
22603;SDS011;11469;49.024;8.246;2022-08-01T15:42:11;4.50;;;0.82;;